CheckWX is a tool to help pilots better visualize weather data.  It is not intended as a substitute for an official pre-flight weather briefing.

16:05:09 UTC

C09 METAR
Morris Municipal - James R Washburn Field Airport
Morris, Illinois, USA
Current

30 mins ago

KC09 071535Z AUTO 19006KT 10SM OVC100 M01/M03 A3040 RMK AO2 T10091031
Observed
Dec-7 @ 15:35 UTC
Wind
  • 190° at 6 KTS
Visibility
10 SM
Flight Rules
VFR
Cloud Levels
  • Overcast at 10,000' AGL
Temperature
-1°C / 30°F
Dewpoint
-3°C / 27°F
Humidity
86%
Altimeter
30.4" Hg
Pressure
1029.42 hPa
Previous

50 mins ago

KC09 071515Z AUTO 18004KT 10SM OVC100 M01/M03 A3040 RMK AO2 T10151034
Observed
Dec-7 @ 15:15 UTC
Wind
  • 180° at 4 KTS
Visibility
10 SM
Flight Rules
VFR
Cloud Levels
  • Overcast at 10,000' AGL
Temperature
-2°C / 28°F
Dewpoint
-3°C / 27°F
Humidity
93%
Altimeter
30.4" Hg
Pressure
1029.42 hPa
Previous

1 hour ago

KC09 071455Z AUTO 17005KT 10SM OVC100 M02/M04 A3039 RMK AO2 T10191037
Observed
Dec-7 @ 14:55 UTC
Wind
  • 170° at 5 KTS
Visibility
10 SM
Flight Rules
VFR
Cloud Levels
  • Overcast at 10,000' AGL
Temperature
-2°C / 28°F
Dewpoint
-4°C / 25°F
Humidity
86%
Altimeter
30.39" Hg
Pressure
1029.12 hPa